sensor_id;sensor_type;location;lat;lon;timestamp;pressure;altitude;pressure_sealevel;temperature;humidity
21102;BME280;10709;49.006;12.100;2023-10-13T00:00:27;49083.00;;;-146.00;100.00
21102;BME280;10709;49.006;12.100;2023-10-13T00:02:59;49024.22;;;-146.00;100.00
21102;BME280;10709;49.006;12.100;2023-10-13T00:05:29;49053.59;;;-146.00;100.00
21102;BME280;10709;49.006;12.100;2023-10-13T00:08:00;49053.59;;;-146.00;100.00
21102;BME280;10709;49.006;12.100;2023-10-13T00:10:31;49047.72;;;-146.00;100.00
21102;BME280;10709;49.006;12.100;2023-10-13T00:12:57;49030.09;;;-146.00;100.00
21102;BME280;10709;49.006;12.100;2023-10-13T00:15:43;49035.97;;;-146.00;100.00
21102;BME280;10709;49.006;12.100;2023-10-13T00:18:31;49022.25;;;-146.00;100.00
21102;BME280;10709;49.006;12.100;2023-10-13T00:21:01;49086.91;;;-146.00;100.00
21102;BME280;10709;49.006;12.100;2023-10-13T00:23:41;49028.13;;;-146.00;100.00
21102;BME280;10709;49.006;12.100;2023-10-13T00:26:24;49032.06;;;-146.00;100.00
21102;BME280;10709;49.006;12.100;2023-10-13T00:28:58;49045.78;;;-146.00;100.00
21102;BME280;10709;49.006;12.100;2023-10-13T00:31:36;49059.47;;;-146.00;100.00
21102;BME280;10709;49.006;12.100;2023-10-13T00:34:04;49053.59;;;-146.00;100.00
21102;BME280;10709;49.006;12.100;2023-10-13T00:36:51;49032.06;;;-146.00;100.00
21102;BME280;10709;49.006;12.100;2023-10-13T00:39:37;49059.47;;;-146.00;100.00
21102;BME280;10709;49.006;12.100;2023-10-13T00:42:07;49016.38;;;-146.00;100.00
21102;BME280;10709;49.006;12.100;2023-10-13T00:44:34;49043.81;;;-146.00;100.00
21102;BME280;10709;49.006;12.100;2023-10-13T00:47:21;49049.69;;;-146.00;100.00
21102;BME280;10709;49.006;12.100;2023-10-13T00:50:10;49057.53;;;-146.00;100.00
21102;BME280;10709;49.006;12.100;2023-10-13T00:52:42;49055.56;;;-146.00;100.00
21102;BME280;10709;49.006;12.100;2023-10-13T00:55:14;49041.84;;;-146.00;100.00
21102;BME280;10709;49.006;12.100;2023-10-13T00:57:41;49026.19;;;-146.00;100.00
21102;BME280;10709;49.006;12.100;2023-10-13T01:00:08;49016.38;;;-146.00;100.00
21102;BME280;10709;49.006;12.100;2023-10-13T01:02:45;49047.72;;;-146.00;100.00
21102;BME280;10709;49.006;12.100;2023-10-13T01:05:21;49024.22;;;-146.00;100.00
21102;BME280;10709;49.006;12.100;2023-10-13T01:07:49;49028.13;;;-146.00;100.00
21102;BME280;10709;49.006;12.100;2023-10-13T01:10:20;49079.06;;;-146.00;100.00
21102;BME280;10709;49.006;12.100;2023-10-13T01:12:47;49045.78;;;-146.00;100.00
21102;BME280;10709;49.006;12.100;2023-10-13T01:15:13;49047.72;;;-146.00;100.00
21102;BME280;10709;49.006;12.100;2023-10-13T01:17:47;49024.22;;;-146.00;100.00
21102;BME280;10709;49.006;12.100;2023-10-13T01:20:14;49055.56;;;-146.00;100.00
21102;BME280;10709;49.006;12.100;2023-10-13T01:22:47;49024.22;;;-146.00;100.00
21102;BME280;10709;49.006;12.100;2023-10-13T01:25:25;49022.25;;;-146.00;100.00
21102;BME280;10709;49.006;12.100;2023-10-13T01:27:55;49014.41;;;-146.00;100.00
21102;BME280;10709;49.006;12.100;2023-10-13T01:30:21;49032.06;;;-146.00;100.00
21102;BME280;10709;49.006;12.100;2023-10-13T01:32:53;49090.81;;;-146.00;100.00
21102;BME280;10709;49.006;12.100;2023-10-13T01:35:20;49047.72;;;-146.00;100.00
21102;BME280;10709;49.006;12.100;2023-10-13T01:37:52;49043.81;;;-146.00;100.00
21102;BME280;10709;49.006;12.100;2023-10-13T01:40:19;49024.22;;;-146.00;100.00
21102;BME280;10709;49.006;12.100;2023-10-13T01:42:47;49026.19;;;-146.00;100.00
21102;BME280;10709;49.006;12.100;2023-10-13T01:45:21;49016.38;;;-146.00;100.00
21102;BME280;10709;49.006;12.100;2023-10-13T01:47:51;49039.88;;;-146.00;100.00
21102;BME280;10709;49.006;12.100;2023-10-13T01:50:18;49039.88;;;-146.00;100.00
21102;BME280;10709;49.006;12.100;2023-10-13T01:52:55;48996.78;;;-146.00;100.00
21102;BME280;10709;49.006;12.100;2023-10-13T01:56:00;49037.94;;;-146.00;100.00
21102;BME280;10709;49.006;12.100;2023-10-13T01:58:31;49051.66;;;-146.00;100.00
21102;BME280;10709;49.006;12.100;2023-10-13T02:00:58;49024.22;;;-146.00;100.00
21102;BME280;10709;49.006;12.100;2023-10-13T02:03:26;49075.16;;;-146.00;100.00
21102;BME280;10709;49.006;12.100;2023-10-13T02:05:56;49053.59;;;-146.00;100.00
21102;BME280;10709;49.006;12.100;2023-10-13T02:08:30;49047.72;;;-146.00;100.00
21102;BME280;10709;49.006;12.100;2023-10-13T02:10:57;49075.16;;;-146.00;100.00
21102;BME280;10709;49.006;12.100;2023-10-13T02:13:27;49043.81;;;-146.00;100.00
21102;BME280;10709;49.006;12.100;2023-10-13T02:15:57;49016.38;;;-146.00;100.00
21102;BME280;10709;49.006;12.100;2023-10-13T02:18:24;49012.47;;;-146.00;100.00
21102;BME280;10709;49.006;12.100;2023-10-13T02:20:56;49037.94;;;-146.00;100.00
21102;BME280;10709;49.006;12.100;2023-10-13T02:23:24;49010.50;;;-146.00;100.00
21102;BME280;10709;49.006;12.100;2023-10-13T02:25:51;49016.38;;;-146.00;100.00
21102;BME280;10709;49.006;12.100;2023-10-13T02:28:38;49063.41;;;-146.00;100.00
21102;BME280;10709;49.006;12.100;2023-10-13T02:31:06;49032.06;;;-146.00;100.00
21102;BME280;10709;49.006;12.100;2023-10-13T02:33:33;49012.47;;;-146.00;100.00
21102;BME280;10709;49.006;12.100;2023-10-13T02:36:02;48996.78;;;-146.00;100.00
21102;BME280;10709;49.006;12.100;2023-10-13T02:38:32;49012.47;;;-146.00;100.00
21102;BME280;10709;49.006;12.100;2023-10-13T02:41:00;49051.66;;;-146.00;100.00
21102;BME280;10709;49.006;12.100;2023-10-13T02:43:36;49016.38;;;-146.00;100.00
21102;BME280;10709;49.006;12.100;2023-10-13T02:46:03;49018.34;;;-146.00;100.00
21102;BME280;10709;49.006;12.100;2023-10-13T02:48:30;49020.31;;;-146.00;100.00
21102;BME280;10709;49.006;12.100;2023-10-13T02:51:08;49020.31;;;-146.00;100.00
21102;BME280;10709;49.006;12.100;2023-10-13T02:53:45;49008.53;;;-146.00;100.00
21102;BME280;10709;49.006;12.100;2023-10-13T02:56:17;49020.31;;;-146.00;100.00
21102;BME280;10709;49.006;12.100;2023-10-13T02:58:50;49020.31;;;-146.00;100.00
21102;BME280;10709;49.006;12.100;2023-10-13T03:01:23;49035.97;;;-146.00;100.00
21102;BME280;10709;49.006;12.100;2023-10-13T03:04:01;49039.88;;;-146.00;100.00
21102;BME280;10709;49.006;12.100;2023-10-13T03:06:29;49008.53;;;-146.00;100.00
21102;BME280;10709;49.006;12.100;2023-10-13T03:09:01;49065.34;;;-146.00;100.00
21102;BME280;10709;49.006;12.100;2023-10-13T03:11:46;49026.19;;;-146.00;100.00
21102;BME280;10709;49.006;12.100;2023-10-13T03:14:21;49043.81;;;-146.00;100.00
21102;BME280;10709;49.006;12.100;2023-10-13T03:16:57;49032.06;;;-146.00;100.00
21102;BME280;10709;49.006;12.100;2023-10-13T03:19:33;49039.88;;;-146.00;100.00
21102;BME280;10709;49.006;12.100;2023-10-13T03:22:05;49083.00;;;-146.00;100.00
21102;BME280;10709;49.006;12.100;2023-10-13T03:24:43;49075.16;;;-146.00;100.00
21102;BME280;10709;49.006;12.100;2023-10-13T03:27:15;49037.94;;;-146.00;100.00
21102;BME280;10709;49.006;12.100;2023-10-13T03:29:50;49071.25;;;-146.00;100.00
21102;BME280;10709;49.006;12.100;2023-10-13T03:32:22;49028.13;;;-146.00;100.00
21102;BME280;10709;49.006;12.100;2023-10-13T03:34:53;49041.84;;;-146.00;100.00
21102;BME280;10709;49.006;12.100;2023-10-13T03:37:39;49051.66;;;-146.00;100.00
21102;BME280;10709;49.006;12.100;2023-10-13T03:40:08;49071.25;;;-146.00;100.00
21102;BME280;10709;49.006;12.100;2023-10-13T03:42:48;49039.88;;;-146.00;100.00
21102;BME280;10709;49.006;12.100;2023-10-13T03:45:35;49041.84;;;-146.00;100.00
21102;BME280;10709;49.006;12.100;2023-10-13T03:48:15;49035.97;;;-146.00;100.00
21102;BME280;10709;49.006;12.100;2023-10-13T03:51:02;49028.13;;;-146.00;100.00
21102;BME280;10709;49.006;12.100;2023-10-13T03:53:37;48992.88;;;-146.00;100.00
21102;BME280;10709;49.006;12.100;2023-10-13T03:56:22;49051.66;;;-146.00;100.00
21102;BME280;10709;49.006;12.100;2023-10-13T03:58:59;49084.94;;;-146.00;100.00
21102;BME280;10709;49.006;12.100;2023-10-13T04:01:36;49028.13;;;-146.00;100.00
21102;BME280;10709;49.006;12.100;2023-10-13T04:04:18;49035.97;;;-146.00;100.00
21102;BME280;10709;49.006;12.100;2023-10-13T04:07:10;49008.53;;;-146.00;100.00
21102;BME280;10709;49.006;12.100;2023-10-13T04:09:37;49028.13;;;-146.00;100.00
21102;BME280;10709;49.006;12.100;2023-10-13T04:12:14;49020.31;;;-146.00;100.00
21102;BME280;10709;49.006;12.100;2023-10-13T04:14:59;49035.97;;;-146.00;100.00
21102;BME280;10709;49.006;12.100;2023-10-13T04:17:32;49041.84;;;-146.00;100.00
21102;BME280;10709;49.006;12.100;2023-10-13T04:20:07;49020.31;;;-146.00;100.00
21102;BME280;10709;49.006;12.100;2023-10-13T04:22:39;49024.22;;;-146.00;100.00
21102;BME280;10709;49.006;12.100;2023-10-13T04:25:24;49043.81;;;-146.00;100.00
21102;BME280;10709;49.006;12.100;2023-10-13T04:28:14;49020.31;;;-146.00;100.00
21102;BME280;10709;49.006;12.100;2023-10-13T04:30:48;49020.31;;;-146.00;100.00
21102;BME280;10709;49.006;12.100;2023-10-13T04:33:33;49028.13;;;-146.00;100.00
21102;BME280;10709;49.006;12.100;2023-10-13T04:36:07;49063.41;;;-146.00;100.00
21102;BME280;10709;49.006;12.100;2023-10-13T04:38:41;49051.66;;;-146.00;100.00
21102;BME280;10709;49.006;12.100;2023-10-13T04:41:26;49053.59;;;-146.00;100.00
21102;BME280;10709;49.006;12.100;2023-10-13T04:43:58;49067.31;;;-146.00;100.00
21102;BME280;10709;49.006;12.100;2023-10-13T04:46:31;49008.53;;;-146.00;100.00
21102;BME280;10709;49.006;12.100;2023-10-13T04:49:13;49059.47;;;-146.00;100.00
21102;BME280;10709;49.006;12.100;2023-10-13T04:52:00;49059.47;;;-146.00;100.00
21102;BME280;10709;49.006;12.100;2023-10-13T04:54:37;49039.88;;;-146.00;100.00
21102;BME280;10709;49.006;12.100;2023-10-13T04:57:21;49051.66;;;-146.00;100.00
21102;BME280;10709;49.006;12.100;2023-10-13T05:00:08;49102.59;;;-146.00;100.00
21102;BME280;10709;49.006;12.100;2023-10-13T05:02:42;49079.06;;;-146.00;100.00
21102;BME280;10709;49.006;12.100;2023-10-13T05:05:24;49088.88;;;-146.00;100.00
21102;BME280;10709;49.006;12.100;2023-10-13T05:08:09;49061.44;;;-146.00;100.00
21102;BME280;10709;49.006;12.100;2023-10-13T05:10:54;49043.81;;;-146.00;100.00
21102;BME280;10709;49.006;12.100;2023-10-13T05:13:39;49083.00;;;-146.00;100.00
21102;BME280;10709;49.006;12.100;2023-10-13T05:16:25;49035.97;;;-146.00;100.00
21102;BME280;10709;49.006;12.100;2023-10-13T05:19:11;49090.81;;;-146.00;100.00
21102;BME280;10709;49.006;12.100;2023-10-13T05:21:56;49067.31;;;-146.00;100.00
21102;BME280;10709;49.006;12.100;2023-10-13T05:24:41;49059.47;;;-146.00;100.00
21102;BME280;10709;49.006;12.100;2023-10-13T05:27:26;49065.34;;;-146.00;100.00
21102;BME280;10709;49.006;12.100;2023-10-13T05:30:11;49032.06;;;-146.00;100.00
21102;BME280;10709;49.006;12.100;2023-10-13T05:32:56;49057.53;;;-146.00;100.00
21102;BME280;10709;49.006;12.100;2023-10-13T05:35:52;49059.47;;;-146.00;100.00
21102;BME280;10709;49.006;12.100;2023-10-13T05:38:37;49055.56;;;-146.00;100.00
21102;BME280;10709;49.006;12.100;2023-10-13T05:41:23;49069.28;;;-146.00;100.00
21102;BME280;10709;49.006;12.100;2023-10-13T05:44:08;49055.56;;;-146.00;100.00
21102;BME280;10709;49.006;12.100;2023-10-13T05:46:53;49067.31;;;-146.00;100.00
21102;BME280;10709;49.006;12.100;2023-10-13T05:49:58;49067.31;;;-146.00;100.00
21102;BME280;10709;49.006;12.100;2023-10-13T05:52:48;49063.41;;;-146.00;100.00
21102;BME280;10709;49.006;12.100;2023-10-13T05:55:25;49047.72;;;-146.00;100.00
21102;BME280;10709;49.006;12.100;2023-10-13T05:58:10;49061.44;;;-146.00;100.00
21102;BME280;10709;49.006;12.100;2023-10-13T06:00:56;49094.75;;;-146.00;100.00
21102;BME280;10709;49.006;12.100;2023-10-13T06:03:41;49051.66;;;-146.00;100.00
21102;BME280;10709;49.006;12.100;2023-10-13T06:06:26;49045.78;;;-146.00;100.00
21102;BME280;10709;49.006;12.100;2023-10-13T06:09:11;49069.28;;;-146.00;100.00
21102;BME280;10709;49.006;12.100;2023-10-13T06:11:56;49047.72;;;-146.00;100.00
21102;BME280;10709;49.006;12.100;2023-10-13T06:14:46;49043.81;;;-146.00;100.00
21102;BME280;10709;49.006;12.100;2023-10-13T06:17:31;49059.47;;;-146.00;100.00
21102;BME280;10709;49.006;12.100;2023-10-13T06:20:16;49059.47;;;-146.00;100.00
21102;BME280;10709;49.006;12.100;2023-10-13T06:23:02;49067.31;;;-146.00;100.00
21102;BME280;10709;49.006;12.100;2023-10-13T06:25:51;49059.47;;;-146.00;100.00
21102;BME280;10709;49.006;12.100;2023-10-13T06:28:36;49057.53;;;-146.00;100.00
21102;BME280;10709;49.006;12.100;2023-10-13T06:31:10;49061.44;;;-146.00;100.00
21102;BME280;10709;49.006;12.100;2023-10-13T06:33:53;49028.13;;;-146.00;100.00
21102;BME280;10709;49.006;12.100;2023-10-13T06:36:22;49067.31;;;-146.00;100.00
21102;BME280;10709;49.006;12.100;2023-10-13T06:38:49;49071.25;;;-146.00;100.00
21102;BME280;10709;49.006;12.100;2023-10-13T06:41:22;49079.06;;;-146.00;100.00
21102;BME280;10709;49.006;12.100;2023-10-13T06:43:57;49047.72;;;-146.00;100.00
21102;BME280;10709;49.006;12.100;2023-10-13T06:46:27;49059.47;;;-146.00;100.00
21102;BME280;10709;49.006;12.100;2023-10-13T06:48:55;49039.88;;;-146.00;100.00
21102;BME280;10709;49.006;12.100;2023-10-13T06:51:25;49047.72;;;-146.00;100.00
21102;BME280;10709;49.006;12.100;2023-10-13T06:53:58;49053.59;;;-146.00;100.00
21102;BME280;10709;49.006;12.100;2023-10-13T06:56:25;49059.47;;;-146.00;100.00
21102;BME280;10709;49.006;12.100;2023-10-13T06:58:55;49059.47;;;-146.00;100.00
21102;BME280;10709;49.006;12.100;2023-10-13T07:01:32;49061.44;;;-146.00;100.00
21102;BME280;10709;49.006;12.100;2023-10-13T07:04:09;49041.84;;;-146.00;100.00
21102;BME280;10709;49.006;12.100;2023-10-13T07:06:43;49057.53;;;-146.00;100.00
21102;BME280;10709;49.006;12.100;2023-10-13T07:09:18;49063.41;;;-146.00;100.00
21102;BME280;10709;49.006;12.100;2023-10-13T07:12:07;49059.47;;;-146.00;100.00
21102;BME280;10709;49.006;12.100;2023-10-13T07:14:46;49055.56;;;-146.00;100.00
21102;BME280;10709;49.006;12.100;2023-10-13T07:17:21;49047.72;;;-146.00;100.00
21102;BME280;10709;49.006;12.100;2023-10-13T07:19:54;49041.84;;;-146.00;100.00
21102;BME280;10709;49.006;12.100;2023-10-13T07:22:23;49055.56;;;-146.00;100.00
21102;BME280;10709;49.006;12.100;2023-10-13T07:24:50;49053.59;;;-146.00;100.00
21102;BME280;10709;49.006;12.100;2023-10-13T07:27:21;49020.31;;;-146.00;100.00
21102;BME280;10709;49.006;12.100;2023-10-13T07:29:52;49039.88;;;-146.00;100.00
21102;BME280;10709;49.006;12.100;2023-10-13T07:32:23;49047.72;;;-146.00;100.00
21102;BME280;10709;49.006;12.100;2023-10-13T07:34:53;49032.06;;;-146.00;100.00
21102;BME280;10709;49.006;12.100;2023-10-13T07:37:23;49051.66;;;-146.00;100.00
21102;BME280;10709;49.006;12.100;2023-10-13T07:39:55;49047.72;;;-146.00;100.00
21102;BME280;10709;49.006;12.100;2023-10-13T07:42:25;49055.56;;;-146.00;100.00
21102;BME280;10709;49.006;12.100;2023-10-13T07:44:58;49041.84;;;-146.00;100.00
21102;BME280;10709;49.006;12.100;2023-10-13T07:47:25;49028.13;;;-146.00;100.00
21102;BME280;10709;49.006;12.100;2023-10-13T07:49:54;49032.06;;;-146.00;100.00
21102;BME280;10709;49.006;12.100;2023-10-13T07:52:23;49020.31;;;-146.00;100.00
21102;BME280;10709;49.006;12.100;2023-10-13T07:54:53;49034.00;;;-146.00;100.00
21102;BME280;10709;49.006;12.100;2023-10-13T07:57:26;49012.47;;;-146.00;100.00
21102;BME280;10709;49.006;12.100;2023-10-13T07:59:56;49032.06;;;-146.00;100.00
21102;BME280;10709;49.006;12.100;2023-10-13T08:02:36;49043.81;;;-146.00;100.00
21102;BME280;10709;49.006;12.100;2023-10-13T08:05:16;49034.00;;;-146.00;100.00
21102;BME280;10709;49.006;12.100;2023-10-13T08:07:55;49045.78;;;-146.00;100.00
21102;BME280;10709;49.006;12.100;2023-10-13T08:10:22;49051.66;;;-146.00;100.00
21102;BME280;10709;49.006;12.100;2023-10-13T08:12:56;49039.88;;;-146.00;100.00
21102;BME280;10709;49.006;12.100;2023-10-13T08:15:25;49059.47;;;-146.00;100.00
21102;BME280;10709;49.006;12.100;2023-10-13T08:18:00;49075.16;;;-146.00;100.00
21102;BME280;10709;49.006;12.100;2023-10-13T08:20:44;49063.41;;;-146.00;100.00
21102;BME280;10709;49.006;12.100;2023-10-13T08:23:11;49039.88;;;-146.00;100.00
21102;BME280;10709;49.006;12.100;2023-10-13T08:25:41;49045.78;;;-146.00;100.00
21102;BME280;10709;49.006;12.100;2023-10-13T08:28:30;49075.16;;;-146.00;100.00
21102;BME280;10709;49.006;12.100;2023-10-13T08:31:22;49098.66;;;-146.00;100.00
21102;BME280;10709;49.006;12.100;2023-10-13T08:33:52;49102.59;;;-146.00;100.00
21102;BME280;10709;49.006;12.100;2023-10-13T08:36:32;49090.81;;;-146.00;100.00
21102;BME280;10709;49.006;12.100;2023-10-13T08:38:59;49083.00;;;-146.00;100.00
21102;BME280;10709;49.006;12.100;2023-10-13T08:41:45;49084.94;;;-146.00;100.00
21102;BME280;10709;49.006;12.100;2023-10-13T08:44:27;49110.41;;;-146.00;100.00
21102;BME280;10709;49.006;12.100;2023-10-13T08:47:14;49137.84;;;-146.00;100.00
21102;BME280;10709;49.006;12.100;2023-10-13T08:49:45;49088.88;;;-146.00;100.00
21102;BME280;10709;49.006;12.100;2023-10-13T08:52:17;49081.03;;;-146.00;100.00
21102;BME280;10709;49.006;12.100;2023-10-13T08:55:10;49083.00;;;-146.00;100.00
21102;BME280;10709;49.006;12.100;2023-10-13T08:58:13;49041.84;;;-146.00;100.00
21102;BME280;10709;49.006;12.100;2023-10-13T09:00:42;49032.06;;;-146.00;100.00
21102;BME280;10709;49.006;12.100;2023-10-13T09:03:40;49016.38;;;-146.00;99.69
21102;BME280;10709;49.006;12.100;2023-10-13T09:06:14;49047.72;;;-146.00;98.59
21102;BME280;10709;49.006;12.100;2023-10-13T09:08:41;49053.59;;;-146.00;96.81
21102;BME280;10709;49.006;12.100;2023-10-13T09:11:34;49090.81;;;-146.00;97.57
21102;BME280;10709;49.006;12.100;2023-10-13T09:14:17;49020.31;;;-146.00;96.40
21102;BME280;10709;49.006;12.100;2023-10-13T09:17:02;48988.94;;;-146.00;94.97
21102;BME280;10709;49.006;12.100;2023-10-13T09:20:07;48949.78;;;-146.00;94.53
21102;BME280;10709;49.006;12.100;2023-10-13T09:22:55;48988.94;;;-146.00;95.30
21102;BME280;10709;49.006;12.100;2023-10-13T09:25:28;48945.84;;;-146.00;94.09
21102;BME280;10709;49.006;12.100;2023-10-13T09:28:12;49028.13;;;-146.00;93.23
21102;BME280;10709;49.006;12.100;2023-10-13T09:30:45;48992.88;;;-146.00;92.42
21102;BME280;10709;49.006;12.100;2023-10-13T09:33:12;48953.69;;;-146.00;92.39
21102;BME280;10709;49.006;12.100;2023-10-13T09:35:43;49008.53;;;-146.00;92.37
21102;BME280;10709;49.006;12.100;2023-10-13T09:38:19;48977.19;;;-146.00;91.99
21102;BME280;10709;49.006;12.100;2023-10-13T09:40:47;48975.25;;;-146.00;90.50
21102;BME280;10709;49.006;12.100;2023-10-13T09:43:17;48945.84;;;-146.00;89.61
21102;BME280;10709;49.006;12.100;2023-10-13T09:45:49;48965.44;;;-146.00;89.38
21102;BME280;10709;49.006;12.100;2023-10-13T09:48:45;48961.53;;;-146.00;89.57
21102;BME280;10709;49.006;12.100;2023-10-13T09:51:15;48941.94;;;-146.00;88.19
21102;BME280;10709;49.006;12.100;2023-10-13T09:54:22;48957.59;;;-146.00;85.59
21102;BME280;10709;49.006;12.100;2023-10-13T09:57:07;48969.38;;;-146.00;88.77
21102;BME280;10709;49.006;12.100;2023-10-13T10:00:00;48930.19;;;-146.00;85.62
21102;BME280;10709;49.006;12.100;2023-10-13T10:02:54;48938.03;;;-146.00;85.21
21102;BME280;10709;49.006;12.100;2023-10-13T10:05:25;48914.50;;;-146.00;83.41
21102;BME280;10709;49.006;12.100;2023-10-13T10:07:58;48926.25;;;-146.00;83.48
21102;BME280;10709;49.006;12.100;2023-10-13T10:11:07;48900.78;;;-146.00;82.49
21102;BME280;10709;49.006;12.100;2023-10-13T10:13:41;48914.50;;;-146.00;79.42
21102;BME280;10709;49.006;12.100;2023-10-13T10:16:15;48881.22;;;-146.00;77.99
21102;BME280;10709;49.006;12.100;2023-10-13T10:18:46;48898.84;;;-146.00;80.88
21102;BME280;10709;49.006;12.100;2023-10-13T10:21:13;48892.97;;;-146.00;77.70
21102;BME280;10709;49.006;12.100;2023-10-13T10:23:52;48840.06;;;-146.00;68.31
21102;BME280;10709;49.006;12.100;2023-10-13T10:26:19;48894.91;;;-146.00;70.17
21102;BME280;10709;49.006;12.100;2023-10-13T10:28:46;48871.41;;;-146.00;70.08
21102;BME280;10709;49.006;12.100;2023-10-13T10:31:13;48840.06;;;-146.00;67.29
21102;BME280;10709;49.006;12.100;2023-10-13T10:33:43;48871.41;;;-146.00;66.57
21102;BME280;10709;49.006;12.100;2023-10-13T10:36:11;48887.09;;;-146.00;69.15
21102;BME280;10709;49.006;12.100;2023-10-13T10:38:53;48871.41;;;-146.00;64.65
21102;BME280;10709;49.006;12.100;2023-10-13T10:41:28;48859.66;;;-146.00;67.53
21102;BME280;10709;49.006;12.100;2023-10-13T10:44:15;48844.00;;;-146.00;65.92
21102;BME280;10709;49.006;12.100;2023-10-13T10:46:43;48871.41;;;-146.00;63.98
21102;BME280;10709;49.006;12.100;2023-10-13T10:49:27;48861.63;;;-146.00;65.77
21102;BME280;10709;49.006;12.100;2023-10-13T10:52:00;48861.63;;;-146.00;63.45
21102;BME280;10709;49.006;12.100;2023-10-13T10:54:33;48879.25;;;-146.00;66.34
21102;BME280;10709;49.006;12.100;2023-10-13T10:57:00;48844.00;;;-146.00;64.68
21102;BME280;10709;49.006;12.100;2023-10-13T10:59:45;48891.00;;;-146.00;62.01
21102;BME280;10709;49.006;12.100;2023-10-13T11:02:12;48836.16;;;-146.00;61.58
21102;BME280;10709;49.006;12.100;2023-10-13T11:04:50;48851.81;;;-146.00;60.46
21102;BME280;10709;49.006;12.100;2023-10-13T11:07:22;48871.41;;;-146.00;58.11
21102;BME280;10709;49.006;12.100;2023-10-13T11:09:50;48842.03;;;-146.00;62.15
21102;BME280;10709;49.006;12.100;2023-10-13T11:12:20;48896.88;;;-146.00;60.20
21102;BME280;10709;49.006;12.100;2023-10-13T11:15:01;48849.88;;;-146.00;60.24
21102;BME280;10709;49.006;12.100;2023-10-13T11:17:28;48894.91;;;-146.00;61.40
21102;BME280;10709;49.006;12.100;2023-10-13T11:20:17;48871.41;;;-146.00;61.32
21102;BME280;10709;49.006;12.100;2023-10-13T11:22:53;48883.16;;;-146.00;59.92
21102;BME280;10709;49.006;12.100;2023-10-13T11:25:24;48863.56;;;-146.00;57.39
21102;BME280;10709;49.006;12.100;2023-10-13T11:27:56;48877.28;;;-146.00;57.46
21102;BME280;10709;49.006;12.100;2023-10-13T11:30:27;48871.41;;;-146.00;60.43
21102;BME280;10709;49.006;12.100;2023-10-13T11:33:14;48898.84;;;-146.00;57.37
21102;BME280;10709;49.006;12.100;2023-10-13T11:35:45;48879.25;;;-146.00;58.21
21102;BME280;10709;49.006;12.100;2023-10-13T11:38:26;48887.09;;;-146.00;58.18
21102;BME280;10709;49.006;12.100;2023-10-13T11:41:03;48869.44;;;-146.00;55.18
21102;BME280;10709;49.006;12.100;2023-10-13T11:46:27;48906.69;;;-146.00;58.35
21102;BME280;10709;49.006;12.100;2023-10-13T11:49:08;48879.25;;;-146.00;57.62
21102;BME280;10709;49.006;12.100;2023-10-13T11:51:40;48879.25;;;-146.00;56.90
21102;BME280;10709;49.006;12.100;2023-10-13T11:54:15;48871.41;;;-146.00;55.79
21102;BME280;10709;49.006;12.100;2023-10-13T11:56:42;48871.41;;;-146.00;54.56
21102;BME280;10709;49.006;12.100;2023-10-13T11:59:09;48920.38;;;-146.00;55.92
21102;BME280;10709;49.006;12.100;2023-10-13T12:04:31;48867.50;;;-146.00;53.84
21102;BME280;10709;49.006;12.100;2023-10-13T12:07:18;48883.16;;;-146.00;55.16
21102;BME280;10709;49.006;12.100;2023-10-13T12:10:14;48871.41;;;-146.00;54.10
21102;BME280;10709;49.006;12.100;2023-10-13T12:13:01;48924.31;;;-146.00;56.06
21102;BME280;10709;49.006;12.100;2023-10-13T12:15:33;48904.72;;;-146.00;56.73
21102;BME280;10709;49.006;12.100;2023-10-13T12:18:16;48896.88;;;-146.00;53.47
21102;BME280;10709;49.006;12.100;2023-10-13T12:20:42;48906.69;;;-146.00;51.14
21102;BME280;10709;49.006;12.100;2023-10-13T12:23:13;48902.75;;;-146.00;53.91
21102;BME280;10709;49.006;12.100;2023-10-13T12:25:43;48869.44;;;-146.00;54.57
21102;BME280;10709;49.006;12.100;2023-10-13T12:28:26;48902.75;;;-146.00;54.39
21102;BME280;10709;49.006;12.100;2023-10-13T12:30:55;48855.75;;;-146.00;51.91
21102;BME280;10709;49.006;12.100;2023-10-13T12:33:25;48887.09;;;-146.00;48.95
21102;BME280;10709;49.006;12.100;2023-10-13T12:35:56;48881.22;;;-146.00;48.81
21102;BME280;10709;49.006;12.100;2023-10-13T12:38:38;48877.28;;;-146.00;50.27
21102;BME280;10709;49.006;12.100;2023-10-13T12:41:14;48879.25;;;-146.00;48.78
21102;BME280;10709;49.006;12.100;2023-10-13T12:44:03;48871.41;;;-146.00;53.66
21102;BME280;10709;49.006;12.100;2023-10-13T12:46:49;48861.63;;;-146.00;53.81
21102;BME280;10709;49.006;12.100;2023-10-13T12:49:34;48891.00;;;-146.00;52.73
21102;BME280;10709;49.006;12.100;2023-10-13T12:52:11;48922.34;;;-146.00;49.84
21102;BME280;10709;49.006;12.100;2023-10-13T12:54:53;48898.84;;;-146.00;48.81
21102;BME280;10709;49.006;12.100;2023-10-13T12:57:33;48889.03;;;-146.00;46.11
21102;BME280;10709;49.006;12.100;2023-10-13T12:59:59;48867.50;;;-146.00;47.69
21102;BME280;10709;49.006;12.100;2023-10-13T13:02:27;48883.16;;;-146.00;50.03
21102;BME280;10709;49.006;12.100;2023-10-13T13:04:55;48887.09;;;-146.00;48.48
21102;BME280;10709;49.006;12.100;2023-10-13T13:07:39;48879.25;;;-146.00;49.06
21102;BME280;10709;49.006;12.100;2023-10-13T13:10:20;48871.41;;;-146.00;49.06
21102;BME280;10709;49.006;12.100;2023-10-13T13:13:02;48891.00;;;-146.00;49.94
21102;BME280;10709;49.006;12.100;2023-10-13T13:15:29;48902.75;;;-146.00;48.73